sensor_id;sensor_type;location;lat;lon;timestamp;P1;durP1;ratioP1;P2;durP2;ratioP2
34896;SDS011;43407;51.828;-2.298;2023-11-18T00:01:21;3.53;;;1.60;;
34896;SDS011;43407;51.828;-2.298;2023-11-18T00:03:47;4.97;;;1.40;;
34896;SDS011;43407;51.828;-2.298;2023-11-18T00:06:13;4.55;;;1.50;;
34896;SDS011;43407;51.828;-2.298;2023-11-18T00:08:39;6.70;;;2.08;;
34896;SDS011;43407;51.828;-2.298;2023-11-18T00:11:04;5.90;;;2.00;;
34896;SDS011;43407;51.828;-2.298;2023-11-18T00:13:30;3.40;;;1.75;;
34896;SDS011;43407;51.828;-2.298;2023-11-18T00:15:55;6.30;;;2.17;;
34896;SDS011;43407;51.828;-2.298;2023-11-18T00:18:22;5.78;;;2.15;;
34896;SDS011;43407;51.828;-2.298;2023-11-18T00:20:48;4.18;;;1.88;;
34896;SDS011;43407;51.828;-2.298;2023-11-18T00:23:16;5.60;;;1.98;;
34896;SDS011;43407;51.828;-2.298;2023-11-18T00:25:42;4.00;;;1.85;;
34896;SDS011;43407;51.828;-2.298;2023-11-18T00:28:09;6.43;;;1.98;;
34896;SDS011;43407;51.828;-2.298;2023-11-18T00:30:35;6.70;;;2.00;;
34896;SDS011;43407;51.828;-2.298;2023-11-18T00:33:00;5.10;;;2.20;;
34896;SDS011;43407;51.828;-2.298;2023-11-18T00:35:26;5.20;;;2.10;;
34896;SDS011;43407;51.828;-2.298;2023-11-18T00:37:51;4.63;;;1.95;;
34896;SDS011;43407;51.828;-2.298;2023-11-18T00:40:17;4.57;;;2.08;;
34896;SDS011;43407;51.828;-2.298;2023-11-18T00:42:45;5.28;;;2.00;;
34896;SDS011;43407;51.828;-2.298;2023-11-18T00:45:10;7.13;;;2.15;;
34896;SDS011;43407;51.828;-2.298;2023-11-18T00:47:38;5.18;;;2.17;;
34896;SDS011;43407;51.828;-2.298;2023-11-18T00:50:06;4.20;;;1.70;;
34896;SDS011;43407;51.828;-2.298;2023-11-18T00:52:33;3.35;;;1.75;;
34896;SDS011;43407;51.828;-2.298;2023-11-18T00:54:59;6.75;;;2.00;;
34896;SDS011;43407;51.828;-2.298;2023-11-18T00:57:25;3.95;;;2.00;;
34896;SDS011;43407;51.828;-2.298;2023-11-18T00:59:51;5.03;;;1.80;;
34896;SDS011;43407;51.828;-2.298;2023-11-18T01:02:16;4.43;;;2.28;;
34896;SDS011;43407;51.828;-2.298;2023-11-18T01:04:43;3.95;;;1.95;;
34896;SDS011;43407;51.828;-2.298;2023-11-18T01:07:10;2.85;;;1.60;;
34896;SDS011;43407;51.828;-2.298;2023-11-18T01:09:36;2.42;;;1.52;;
34896;SDS011;43407;51.828;-2.298;2023-11-18T01:12:03;6.15;;;2.00;;
34896;SDS011;43407;51.828;-2.298;2023-11-18T01:14:30;2.78;;;1.70;;
34896;SDS011;43407;51.828;-2.298;2023-11-18T01:16:56;5.38;;;1.80;;
34896;SDS011;43407;51.828;-2.298;2023-11-18T01:19:22;3.28;;;1.75;;
34896;SDS011;43407;51.828;-2.298;2023-11-18T01:21:48;4.47;;;1.60;;
34896;SDS011;43407;51.828;-2.298;2023-11-18T01:24:14;2.53;;;1.60;;
34896;SDS011;43407;51.828;-2.298;2023-11-18T01:26:41;2.92;;;1.50;;
34896;SDS011;43407;51.828;-2.298;2023-11-18T01:29:07;1.45;;;1.35;;
34896;SDS011;43407;51.828;-2.298;2023-11-18T01:31:32;3.20;;;1.25;;
34896;SDS011;43407;51.828;-2.298;2023-11-18T01:33:58;1.60;;;1.35;;
34896;SDS011;43407;51.828;-2.298;2023-11-18T01:36:24;1.50;;;1.40;;
34896;SDS011;43407;51.828;-2.298;2023-11-18T01:38:50;2.58;;;1.25;;
34896;SDS011;43407;51.828;-2.298;2023-11-18T01:41:16;1.35;;;1.23;;
34896;SDS011;43407;51.828;-2.298;2023-11-18T01:43:44;1.20;;;1.10;;
34896;SDS011;43407;51.828;-2.298;2023-11-18T01:46:11;1.63;;;1.30;;
34896;SDS011;43407;51.828;-2.298;2023-11-18T01:48:38;2.63;;;1.50;;
34896;SDS011;43407;51.828;-2.298;2023-11-18T01:51:07;2.67;;;1.10;;
34896;SDS011;43407;51.828;-2.298;2023-11-18T01:53:33;2.20;;;1.30;;
34896;SDS011;43407;51.828;-2.298;2023-11-18T01:56:00;1.50;;;1.40;;
34896;SDS011;43407;51.828;-2.298;2023-11-18T01:58:26;1.83;;;1.20;;
34896;SDS011;43407;51.828;-2.298;2023-11-18T02:00:52;1.83;;;1.45;;
34896;SDS011;43407;51.828;-2.298;2023-11-18T02:03:18;1.40;;;1.25;;
34896;SDS011;43407;51.828;-2.298;2023-11-18T02:05:45;3.50;;;1.50;;
34896;SDS011;43407;51.828;-2.298;2023-11-18T02:08:11;2.55;;;1.73;;
34896;SDS011;43407;51.828;-2.298;2023-11-18T02:10:47;1.30;;;1.10;;
34896;SDS011;43407;51.828;-2.298;2023-11-18T02:15:54;3.65;;;1.27;;
34896;SDS011;43407;51.828;-2.298;2023-11-18T02:18:24;2.05;;;1.20;;
34896;SDS011;43407;51.828;-2.298;2023-11-18T02:20:54;2.00;;;1.15;;
34896;SDS011;43407;51.828;-2.298;2023-11-18T02:23:22;1.90;;;1.10;;
34896;SDS011;43407;51.828;-2.298;2023-11-18T02:25:48;1.17;;;1.00;;
34896;SDS011;43407;51.828;-2.298;2023-11-18T02:28:14;1.50;;;1.10;;
34896;SDS011;43407;51.828;-2.298;2023-11-18T02:30:43;1.20;;;1.02;;
34896;SDS011;43407;51.828;-2.298;2023-11-18T02:33:30;1.77;;;1.23;;
34896;SDS011;43407;51.828;-2.298;2023-11-18T02:36:19;0.98;;;0.60;;
34896;SDS011;43407;51.828;-2.298;2023-11-18T02:38:49;1.23;;;0.73;;
34896;SDS011;43407;51.828;-2.298;2023-11-18T02:41:15;1.10;;;0.68;;
34896;SDS011;43407;51.828;-2.298;2023-11-18T02:43:43;2.05;;;0.47;;
34896;SDS011;43407;51.828;-2.298;2023-11-18T02:46:09;0.75;;;0.73;;
34896;SDS011;43407;51.828;-2.298;2023-11-18T02:48:37;0.77;;;0.50;;
34896;SDS011;43407;51.828;-2.298;2023-11-18T02:51:03;0.43;;;0.43;;
34896;SDS011;43407;51.828;-2.298;2023-11-18T02:53:29;1.10;;;0.70;;
34896;SDS011;43407;51.828;-2.298;2023-11-18T02:55:55;0.70;;;0.50;;
34896;SDS011;43407;51.828;-2.298;2023-11-18T02:58:27;0.50;;;0.50;;
34896;SDS011;43407;51.828;-2.298;2023-11-18T03:00:53;1.55;;;0.93;;
34896;SDS011;43407;51.828;-2.298;2023-11-18T03:03:18;0.50;;;0.50;;
34896;SDS011;43407;51.828;-2.298;2023-11-18T03:05:45;0.40;;;0.40;;
34896;SDS011;43407;51.828;-2.298;2023-11-18T03:08:15;2.10;;;0.35;;
34896;SDS011;43407;51.828;-2.298;2023-11-18T03:10:40;0.50;;;0.50;;
34896;SDS011;43407;51.828;-2.298;2023-11-18T03:13:09;0.40;;;0.40;;
34896;SDS011;43407;51.828;-2.298;2023-11-18T03:15:35;1.05;;;0.38;;
34896;SDS011;43407;51.828;-2.298;2023-11-18T03:18:00;0.30;;;0.30;;
34896;SDS011;43407;51.828;-2.298;2023-11-18T03:20:26;0.68;;;0.50;;
34896;SDS011;43407;51.828;-2.298;2023-11-18T03:22:51;1.63;;;0.60;;
34896;SDS011;43407;51.828;-2.298;2023-11-18T03:25:17;0.43;;;0.40;;
34896;SDS011;43407;51.828;-2.298;2023-11-18T03:27:44;0.30;;;0.30;;
34896;SDS011;43407;51.828;-2.298;2023-11-18T03:30:10;0.65;;;0.40;;
34896;SDS011;43407;51.828;-2.298;2023-11-18T03:32:36;0.45;;;0.45;;
34896;SDS011;43407;51.828;-2.298;2023-11-18T03:35:03;0.52;;;0.50;;
34896;SDS011;43407;51.828;-2.298;2023-11-18T03:37:32;0.30;;;0.30;;
34896;SDS011;43407;51.828;-2.298;2023-11-18T03:39:57;0.75;;;0.40;;
34896;SDS011;43407;51.828;-2.298;2023-11-18T03:42:23;0.43;;;0.30;;
34896;SDS011;43407;51.828;-2.298;2023-11-18T03:44:48;0.30;;;0.30;;
34896;SDS011;43407;51.828;-2.298;2023-11-18T03:47:14;0.57;;;0.28;;
34896;SDS011;43407;51.828;-2.298;2023-11-18T03:49:40;1.40;;;0.30;;
34896;SDS011;43407;51.828;-2.298;2023-11-18T03:52:06;0.20;;;0.20;;
34896;SDS011;43407;51.828;-2.298;2023-11-18T03:54:31;0.20;;;0.20;;
34896;SDS011;43407;51.828;-2.298;2023-11-18T03:56:57;0.20;;;0.20;;
34896;SDS011;43407;51.828;-2.298;2023-11-18T03:59:23;0.40;;;0.40;;
34896;SDS011;43407;51.828;-2.298;2023-11-18T04:01:48;0.25;;;0.25;;
34896;SDS011;43407;51.828;-2.298;2023-11-18T04:04:16;0.30;;;0.30;;
34896;SDS011;43407;51.828;-2.298;2023-11-18T04:06:41;0.30;;;0.30;;
34896;SDS011;43407;51.828;-2.298;2023-11-18T04:09:07;0.30;;;0.30;;
34896;SDS011;43407;51.828;-2.298;2023-11-18T04:11:34;0.28;;;0.28;;
34896;SDS011;43407;51.828;-2.298;2023-11-18T04:14:00;0.52;;;0.30;;
34896;SDS011;43407;51.828;-2.298;2023-11-18T04:16:25;0.20;;;0.20;;
34896;SDS011;43407;51.828;-2.298;2023-11-18T04:18:51;0.30;;;0.30;;
34896;SDS011;43407;51.828;-2.298;2023-11-18T04:21:16;0.40;;;0.40;;
34896;SDS011;43407;51.828;-2.298;2023-11-18T04:23:43;1.08;;;0.40;;
34896;SDS011;43407;51.828;-2.298;2023-11-18T04:26:11;0.30;;;0.30;;
34896;SDS011;43407;51.828;-2.298;2023-11-18T04:28:37;0.55;;;0.28;;
34896;SDS011;43407;51.828;-2.298;2023-11-18T04:31:03;0.68;;;0.30;;
34896;SDS011;43407;51.828;-2.298;2023-11-18T04:33:30;0.35;;;0.20;;
34896;SDS011;43407;51.828;-2.298;2023-11-18T04:35:56;0.20;;;0.20;;
34896;SDS011;43407;51.828;-2.298;2023-11-18T04:38:25;0.10;;;0.10;;
34896;SDS011;43407;51.828;-2.298;2023-11-18T04:40:51;1.33;;;0.30;;
34896;SDS011;43407;51.828;-2.298;2023-11-18T04:43:18;0.70;;;0.35;;
34896;SDS011;43407;51.828;-2.298;2023-11-18T04:45:45;0.30;;;0.30;;
34896;SDS011;43407;51.828;-2.298;2023-11-18T04:48:11;0.95;;;0.30;;
34896;SDS011;43407;51.828;-2.298;2023-11-18T04:50:38;1.75;;;0.28;;
34896;SDS011;43407;51.828;-2.298;2023-11-18T04:53:04;0.30;;;0.30;;
34896;SDS011;43407;51.828;-2.298;2023-11-18T04:55:33;0.35;;;0.35;;
34896;SDS011;43407;51.828;-2.298;2023-11-18T04:58:00;1.15;;;0.30;;
34896;SDS011;43407;51.828;-2.298;2023-11-18T05:00:25;0.20;;;0.20;;
34896;SDS011;43407;51.828;-2.298;2023-11-18T05:02:51;0.20;;;0.20;;
34896;SDS011;43407;51.828;-2.298;2023-11-18T05:05:17;0.28;;;0.28;;
34896;SDS011;43407;51.828;-2.298;2023-11-18T05:07:42;0.45;;;0.30;;
34896;SDS011;43407;51.828;-2.298;2023-11-18T05:10:09;0.20;;;0.20;;
34896;SDS011;43407;51.828;-2.298;2023-11-18T05:12:37;0.30;;;0.30;;
34896;SDS011;43407;51.828;-2.298;2023-11-18T05:15:04;0.10;;;0.10;;
34896;SDS011;43407;51.828;-2.298;2023-11-18T05:17:31;0.10;;;0.10;;
34896;SDS011;43407;51.828;-2.298;2023-11-18T05:19:56;0.20;;;0.20;;
34896;SDS011;43407;51.828;-2.298;2023-11-18T05:22:22;0.20;;;0.20;;
34896;SDS011;43407;51.828;-2.298;2023-11-18T05:24:47;0.47;;;0.30;;
34896;SDS011;43407;51.828;-2.298;2023-11-18T05:27:13;0.32;;;0.30;;
34896;SDS011;43407;51.828;-2.298;2023-11-18T05:29:39;0.20;;;0.20;;
34896;SDS011;43407;51.828;-2.298;2023-11-18T05:32:10;1.35;;;0.30;;
34896;SDS011;43407;51.828;-2.298;2023-11-18T05:34:35;0.30;;;0.30;;
34896;SDS011;43407;51.828;-2.298;2023-11-18T05:37:01;0.20;;;0.20;;
34896;SDS011;43407;51.828;-2.298;2023-11-18T05:39:26;0.30;;;0.30;;
34896;SDS011;43407;51.828;-2.298;2023-11-18T05:41:56;0.28;;;0.28;;
34896;SDS011;43407;51.828;-2.298;2023-11-18T05:44:22;0.85;;;0.32;;
34896;SDS011;43407;51.828;-2.298;2023-11-18T05:46:56;0.40;;;0.40;;
34896;SDS011;43407;51.828;-2.298;2023-11-18T05:49:22;0.20;;;0.20;;
34896;SDS011;43407;51.828;-2.298;2023-11-18T05:51:49;0.32;;;0.32;;
34896;SDS011;43407;51.828;-2.298;2023-11-18T05:54:15;0.30;;;0.30;;
34896;SDS011;43407;51.828;-2.298;2023-11-18T05:56:41;0.30;;;0.30;;
34896;SDS011;43407;51.828;-2.298;2023-11-18T05:59:06;1.02;;;0.30;;
34896;SDS011;43407;51.828;-2.298;2023-11-18T06:01:33;0.60;;;0.30;;
34896;SDS011;43407;51.828;-2.298;2023-11-18T06:03:59;0.50;;;0.30;;
34896;SDS011;43407;51.828;-2.298;2023-11-18T06:06:26;0.30;;;0.30;;
34896;SDS011;43407;51.828;-2.298;2023-11-18T06:08:51;0.63;;;0.30;;
34896;SDS011;43407;51.828;-2.298;2023-11-18T06:11:18;0.70;;;0.40;;
34896;SDS011;43407;51.828;-2.298;2023-11-18T06:13:50;1.77;;;0.40;;
34896;SDS011;43407;51.828;-2.298;2023-11-18T06:16:18;0.50;;;0.50;;
34896;SDS011;43407;51.828;-2.298;2023-11-18T06:18:51;1.65;;;0.40;;
34896;SDS011;43407;51.828;-2.298;2023-11-18T06:21:19;0.43;;;0.20;;
34896;SDS011;43407;51.828;-2.298;2023-11-18T06:23:50;0.30;;;0.22;;
34896;SDS011;43407;51.828;-2.298;2023-11-18T06:26:16;1.05;;;0.40;;
34896;SDS011;43407;51.828;-2.298;2023-11-18T06:28:43;0.50;;;0.40;;
34896;SDS011;43407;51.828;-2.298;2023-11-18T06:31:09;0.50;;;0.22;;
34896;SDS011;43407;51.828;-2.298;2023-11-18T06:33:39;0.98;;;0.30;;
34896;SDS011;43407;51.828;-2.298;2023-11-18T06:38:43;1.30;;;0.40;;
34896;SDS011;43407;51.828;-2.298;2023-11-18T06:41:12;0.30;;;0.30;;
34896;SDS011;43407;51.828;-2.298;2023-11-18T06:43:41;0.68;;;0.30;;
34896;SDS011;43407;51.828;-2.298;2023-11-18T06:46:19;0.52;;;0.30;;
34896;SDS011;43407;51.828;-2.298;2023-11-18T06:48:49;0.22;;;0.22;;
34896;SDS011;43407;51.828;-2.298;2023-11-18T06:51:28;1.75;;;0.40;;
34896;SDS011;43407;51.828;-2.298;2023-11-18T06:53:54;1.08;;;0.55;;
34896;SDS011;43407;51.828;-2.298;2023-11-18T06:56:20;0.35;;;0.35;;
34896;SDS011;43407;51.828;-2.298;2023-11-18T06:58:46;0.65;;;0.40;;
34896;SDS011;43407;51.828;-2.298;2023-11-18T07:01:15;0.73;;;0.30;;
34896;SDS011;43407;51.828;-2.298;2023-11-18T07:03:41;0.50;;;0.50;;
34896;SDS011;43407;51.828;-2.298;2023-11-18T07:06:07;1.92;;;0.47;;
34896;SDS011;43407;51.828;-2.298;2023-11-18T07:08:34;2.20;;;0.50;;
34896;SDS011;43407;51.828;-2.298;2023-11-18T07:11:01;1.15;;;0.52;;
34896;SDS011;43407;51.828;-2.298;2023-11-18T07:13:27;0.52;;;0.50;;
34896;SDS011;43407;51.828;-2.298;2023-11-18T07:15:53;0.75;;;0.75;;
34896;SDS011;43407;51.828;-2.298;2023-11-18T07:18:25;0.63;;;0.55;;
34896;SDS011;43407;51.828;-2.298;2023-11-18T07:20:51;3.72;;;0.63;;
34896;SDS011;43407;51.828;-2.298;2023-11-18T07:23:20;1.98;;;0.70;;
34896;SDS011;43407;51.828;-2.298;2023-11-18T07:25:45;1.77;;;0.50;;
34896;SDS011;43407;51.828;-2.298;2023-11-18T07:28:11;0.82;;;0.47;;
34896;SDS011;43407;51.828;-2.298;2023-11-18T07:30:41;1.00;;;0.57;;
34896;SDS011;43407;51.828;-2.298;2023-11-18T07:33:07;1.90;;;0.80;;
34896;SDS011;43407;51.828;-2.298;2023-11-18T07:35:33;2.85;;;0.68;;
34896;SDS011;43407;51.828;-2.298;2023-11-18T07:38:01;1.23;;;0.40;;
34896;SDS011;43407;51.828;-2.298;2023-11-18T07:40:27;1.10;;;0.55;;
34896;SDS011;43407;51.828;-2.298;2023-11-18T07:42:58;0.75;;;0.47;;
34896;SDS011;43407;51.828;-2.298;2023-11-18T07:45:26;3.03;;;0.60;;
34896;SDS011;43407;51.828;-2.298;2023-11-18T07:47:54;1.73;;;0.45;;
34896;SDS011;43407;51.828;-2.298;2023-11-18T07:50:20;0.47;;;0.47;;
34896;SDS011;43407;51.828;-2.298;2023-11-18T07:52:49;0.98;;;0.60;;
34896;SDS011;43407;51.828;-2.298;2023-11-18T07:55:15;0.70;;;0.70;;
34896;SDS011;43407;51.828;-2.298;2023-11-18T07:57:41;1.48;;;0.80;;
34896;SDS011;43407;51.828;-2.298;2023-11-18T08:00:07;3.50;;;1.48;;
34896;SDS011;43407;51.828;-2.298;2023-11-18T08:02:36;3.25;;;0.82;;
34896;SDS011;43407;51.828;-2.298;2023-11-18T08:05:05;0.82;;;0.60;;
34896;SDS011;43407;51.828;-2.298;2023-11-18T08:07:38;3.00;;;0.70;;
34896;SDS011;43407;51.828;-2.298;2023-11-18T08:10:05;2.05;;;0.63;;
34896;SDS011;43407;51.828;-2.298;2023-11-18T08:12:31;2.72;;;0.80;;
34896;SDS011;43407;51.828;-2.298;2023-11-18T08:14:57;0.93;;;0.60;;
34896;SDS011;43407;51.828;-2.298;2023-11-18T08:17:24;3.33;;;0.70;;
34896;SDS011;43407;51.828;-2.298;2023-11-18T08:19:51;0.95;;;0.60;;
34896;SDS011;43407;51.828;-2.298;2023-11-18T08:22:17;0.50;;;0.50;;
34896;SDS011;43407;51.828;-2.298;2023-11-18T08:24:44;0.93;;;0.55;;
34896;SDS011;43407;51.828;-2.298;2023-11-18T08:27:13;1.67;;;0.50;;
34896;SDS011;43407;51.828;-2.298;2023-11-18T08:29:39;1.08;;;0.60;;
34896;SDS011;43407;51.828;-2.298;2023-11-18T08:32:05;2.13;;;0.60;;
34896;SDS011;43407;51.828;-2.298;2023-11-18T08:34:34;1.45;;;0.50;;
34896;SDS011;43407;51.828;-2.298;2023-11-18T08:37:00;1.38;;;0.73;;
34896;SDS011;43407;51.828;-2.298;2023-11-18T08:39:28;1.20;;;0.50;;
34896;SDS011;43407;51.828;-2.298;2023-11-18T08:41:54;2.22;;;0.55;;
34896;SDS011;43407;51.828;-2.298;2023-11-18T08:44:19;0.80;;;0.50;;
34896;SDS011;43407;51.828;-2.298;2023-11-18T08:46:45;3.78;;;0.60;;
34896;SDS011;43407;51.828;-2.298;2023-11-18T08:49:11;2.53;;;0.60;;
34896;SDS011;43407;51.828;-2.298;2023-11-18T08:51:37;1.80;;;0.50;;
34896;SDS011;43407;51.828;-2.298;2023-11-18T08:54:03;0.80;;;0.60;;
34896;SDS011;43407;51.828;-2.298;2023-11-18T08:56:47;0.90;;;0.70;;
34896;SDS011;43407;51.828;-2.298;2023-11-18T08:59:22;0.38;;;0.38;;
34896;SDS011;43407;51.828;-2.298;2023-11-18T09:01:50;1.20;;;0.40;;
34896;SDS011;43407;51.828;-2.298;2023-11-18T09:04:21;0.38;;;0.38;;
34896;SDS011;43407;51.828;-2.298;2023-11-18T09:06:48;0.40;;;0.40;;
34896;SDS011;43407;51.828;-2.298;2023-11-18T09:09:14;1.38;;;0.52;;
34896;SDS011;43407;51.828;-2.298;2023-11-18T09:11:40;0.40;;;0.35;;
34896;SDS011;43407;51.828;-2.298;2023-11-18T09:14:07;0.32;;;0.32;;
34896;SDS011;43407;51.828;-2.298;2023-11-18T09:16:33;0.43;;;0.40;;
34896;SDS011;43407;51.828;-2.298;2023-11-18T09:19:04;0.80;;;0.40;;
34896;SDS011;43407;51.828;-2.298;2023-11-18T09:21:31;0.40;;;0.40;;
34896;SDS011;43407;51.828;-2.298;2023-11-18T09:24:00;0.50;;;0.47;;
34896;SDS011;43407;51.828;-2.298;2023-11-18T09:26:30;0.82;;;0.50;;
34896;SDS011;43407;51.828;-2.298;2023-11-18T09:28:56;1.77;;;0.40;;
34896;SDS011;43407;51.828;-2.298;2023-11-18T09:31:23;0.38;;;0.38;;
34896;SDS011;43407;51.828;-2.298;2023-11-18T09:33:48;0.43;;;0.30;;
34896;SDS011;43407;51.828;-2.298;2023-11-18T09:36:17;0.65;;;0.30;;
34896;SDS011;43407;51.828;-2.298;2023-11-18T09:38:43;0.55;;;0.30;;
34896;SDS011;43407;51.828;-2.298;2023-11-18T09:41:11;0.45;;;0.40;;
34896;SDS011;43407;51.828;-2.298;2023-11-18T09:43:44;0.30;;;0.22;;
34896;SDS011;43407;51.828;-2.298;2023-11-18T09:46:11;0.32;;;0.32;;
34896;SDS011;43407;51.828;-2.298;2023-11-18T09:48:44;0.52;;;0.50;;
34896;SDS011;43407;51.828;-2.298;2023-11-18T09:51:21;1.85;;;0.70;;
34896;SDS011;43407;51.828;-2.298;2023-11-18T09:53:51;1.70;;;0.70;;
34896;SDS011;43407;51.828;-2.298;2023-11-18T09:59:49;2.67;;;1.00;;
34896;SDS011;43407;51.828;-2.298;2023-11-18T10:02:02;1.90;;;0.90;;
34896;SDS011;43407;51.828;-2.298;2023-11-18T10:04:29;4.03;;;1.23;;
34896;SDS011;43407;51.828;-2.298;2023-11-18T10:06:56;3.90;;;1.30;;
34896;SDS011;43407;51.828;-2.298;2023-11-18T10:09:25;2.22;;;1.08;;
34896;SDS011;43407;51.828;-2.298;2023-11-18T10:12:02;1.38;;;0.90;;
34896;SDS011;43407;51.828;-2.298;2023-11-18T10:14:36;2.90;;;1.00;;
34896;SDS011;43407;51.828;-2.298;2023-11-18T10:17:06;1.83;;;0.80;;
34896;SDS011;43407;51.828;-2.298;2023-11-18T10:22:24;4.03;;;1.00;;
34896;SDS011;43407;51.828;-2.298;2023-11-18T10:24:51;3.42;;;0.75;;
34896;SDS011;43407;51.828;-2.298;2023-11-18T10:27:28;1.60;;;0.95;;
34896;SDS011;43407;51.828;-2.298;2023-11-18T10:29:55;3.35;;;0.90;;
34896;SDS011;43407;51.828;-2.298;2023-11-18T10:32:27;3.83;;;0.80;;
34896;SDS011;43407;51.828;-2.298;2023-11-18T10:34:56;4.95;;;1.10;;
34896;SDS011;43407;51.828;-2.298;2023-11-18T10:37:22;4.13;;;1.00;;
34896;SDS011;43407;51.828;-2.298;2023-11-18T10:39:49;5.57;;;1.23;;
34896;SDS011;43407;51.828;-2.298;2023-11-18T10:42:17;5.85;;;1.35;;
34896;SDS011;43407;51.828;-2.298;2023-11-18T10:44:56;7.40;;;1.52;;
34896;SDS011;43407;51.828;-2.298;2023-11-18T10:47:32;5.07;;;1.20;;
34896;SDS011;43407;51.828;-2.298;2023-11-18T10:49:58;5.90;;;1.30;;
34896;SDS011;43407;51.828;-2.298;2023-11-18T10:52:26;5.28;;;1.42;;
34896;SDS011;43407;51.828;-2.298;2023-11-18T10:54:56;5.88;;;1.60;;
34896;SDS011;43407;51.828;-2.298;2023-11-18T10:57:22;7.38;;;1.77;;
34896;SDS011;43407;51.828;-2.298;2023-11-18T11:00:21;4.35;;;1.50;;
34896;SDS011;43407;51.828;-2.298;2023-11-18T11:02:43;9.75;;;1.70;;
34896;SDS011;43407;51.828;-2.298;2023-11-18T11:05:08;4.88;;;1.73;;
34896;SDS011;43407;51.828;-2.298;2023-11-18T11:07:43;4.53;;;1.20;;
34896;SDS011;43407;51.828;-2.298;2023-11-18T11:10:09;6.30;;;1.67;;
34896;SDS011;43407;51.828;-2.298;2023-11-18T11:12:42;4.63;;;1.23;;
34896;SDS011;43407;51.828;-2.298;2023-11-18T11:15:29;8.90;;;1.83;;
34896;SDS011;43407;51.828;-2.298;2023-11-18T11:17:56;5.22;;;1.48;;
34896;SDS011;43407;51.828;-2.298;2023-11-18T11:20:30;5.32;;;2.10;;
34896;SDS011;43407;51.828;-2.298;2023-11-18T11:30:44;8.43;;;1.95;;
34896;SDS011;43407;51.828;-2.298;2023-11-18T11:33:32;10.02;;;1.90;;
34896;SDS011;43407;51.828;-2.298;2023-11-18T11:38:36;10.07;;;2.45;;
34896;SDS011;43407;51.828;-2.298;2023-11-18T11:41:02;7.80;;;2.10;;
34896;SDS011;43407;51.828;-2.298;2023-11-18T11:43:30;6.20;;;1.98;;
34896;SDS011;43407;51.828;-2.298;2023-11-18T11:45:59;16.27;;;3.15;;
34896;SDS011;43407;51.828;-2.298;2023-11-18T11:48:28;15.23;;;2.83;;
34896;SDS011;43407;51.828;-2.298;2023-11-18T11:54:24;12.90;;;3.28;;
34896;SDS011;43407;51.828;-2.298;2023-11-18T11:57:03;11.18;;;3.03;;
34896;SDS011;43407;51.828;-2.298;2023-11-18T12:02:09;17.60;;;3.28;;
34896;SDS011;43407;51.828;-2.298;2023-11-18T12:04:36;11.82;;;2.88;;
34896;SDS011;43407;51.828;-2.298;2023-11-18T12:07:03;16.85;;;3.25;;
34896;SDS011;43407;51.828;-2.298;2023-11-18T12:09:35;9.93;;;2.90;;
34896;SDS011;43407;51.828;-2.298;2023-11-18T12:12:10;15.98;;;3.20;;
34896;SDS011;43407;51.828;-2.298;2023-11-18T12:15:17;15.82;;;3.20;;
34896;SDS011;43407;51.828;-2.298;2023-11-18T12:20:39;13.10;;;3.08;;
34896;SDS011;43407;51.828;-2.298;2023-11-18T12:23:22;19.52;;;3.25;;
34896;SDS011;43407;51.828;-2.298;2023-11-18T12:25:53;12.50;;;2.85;;
34896;SDS011;43407;51.828;-2.298;2023-11-18T12:28:26;13.17;;;2.93;;
34896;SDS011;43407;51.828;-2.298;2023-11-18T12:30:56;10.95;;;2.75;;
34896;SDS011;43407;51.828;-2.298;2023-11-18T12:33:23;13.70;;;2.88;;
34896;SDS011;43407;51.828;-2.298;2023-11-18T12:41:35;17.60;;;2.83;;
34896;SDS011;43407;51.828;-2.298;2023-11-18T12:46:47;16.70;;;3.20;;
34896;SDS011;43407;51.828;-2.298;2023-11-18T12:49:37;18.60;;;3.70;;
34896;SDS011;43407;51.828;-2.298;2023-11-18T12:52:06;14.25;;;3.13;;
34896;SDS011;43407;51.828;-2.298;2023-11-18T12:54:33;12.52;;;3.40;;
34896;SDS011;43407;51.828;-2.298;2023-11-18T12:57:02;18.08;;;3.63;;
34896;SDS011;43407;51.828;-2.298;2023-11-18T12:59:31;15.38;;;3.13;;
34896;SDS011;43407;51.828;-2.298;2023-11-18T13:02:01;13.23;;;3.50;;
34896;SDS011;43407;51.828;-2.298;2023-11-18T13:04:30;19.17;;;3.60;;
34896;SDS011;43407;51.828;-2.298;2023-11-18T13:06:56;16.67;;;3.42;;
34896;SDS011;43407;51.828;-2.298;2023-11-18T13:09:23;16.08;;;3.42;;
34896;SDS011;43407;51.828;-2.298;2023-11-18T13:11:52;23.33;;;4.30;;
34896;SDS011;43407;51.828;-2.298;2023-11-18T13:14:21;15.57;;;3.80;;
34896;SDS011;43407;51.828;-2.298;2023-11-18T13:19:27;18.02;;;3.95;;
34896;SDS011;43407;51.828;-2.298;2023-11-18T13:21:58;17.95;;;3.80;;
34896;SDS011;43407;51.828;-2.298;2023-11-18T13:24:25;21.50;;;4.07;;
34896;SDS011;43407;51.828;-2.298;2023-11-18T13:26:53;20.92;;;4.07;;
34896;SDS011;43407;51.828;-2.298;2023-11-18T13:29:20;22.58;;;3.83;;
34896;SDS011;43407;51.828;-2.298;2023-11-18T13:31:46;17.55;;;4.10;;
34896;SDS011;43407;51.828;-2.298;2023-11-18T13:34:13;20.13;;;4.30;;
34896;SDS011;43407;51.828;-2.298;2023-11-18T13:36:39;16.52;;;3.78;;
34896;SDS011;43407;51.828;-2.298;2023-11-18T13:39:04;19.88;;;4.25;;
34896;SDS011;43407;51.828;-2.298;2023-11-18T13:41:32;21.00;;;4.20;;
34896;SDS011;43407;51.828;-2.298;2023-11-18T13:43:57;20.55;;;3.78;;
34896;SDS011;43407;51.828;-2.298;2023-11-18T13:46:23;25.88;;;5.10;;
34896;SDS011;43407;51.828;-2.298;2023-11-18T13:48:49;26.15;;;4.93;;
34896;SDS011;43407;51.828;-2.298;2023-11-18T13:51:17;24.80;;;4.68;;
34896;SDS011;43407;51.828;-2.298;2023-11-18T13:53:44;23.80;;;5.25;;
34896;SDS011;43407;51.828;-2.298;2023-11-18T13:56:11;24.23;;;4.93;;
34896;SDS011;43407;51.828;-2.298;2023-11-18T13:58:42;17.67;;;4.50;;
34896;SDS011;43407;51.828;-2.298;2023-11-18T14:01:10;19.38;;;4.20;;
34896;SDS011;43407;51.828;-2.298;2023-11-18T14:03:37;27.73;;;4.50;;
34896;SDS011;43407;51.828;-2.298;2023-11-18T14:06:08;24.50;;;4.60;;
34896;SDS011;43407;51.828;-2.298;2023-11-18T14:08:37;25.42;;;5.13;;
34896;SDS011;43407;51.828;-2.298;2023-11-18T14:11:04;21.67;;;4.55;;
34896;SDS011;43407;51.828;-2.298;2023-11-18T14:13:30;25.88;;;4.70;;
34896;SDS011;43407;51.828;-2.298;2023-11-18T14:15:59;22.92;;;4.35;;
34896;SDS011;43407;51.828;-2.298;2023-11-18T14:18:25;25.50;;;4.75;;
34896;SDS011;43407;51.828;-2.298;2023-11-18T14:20:51;26.23;;;5.25;;
34896;SDS011;43407;51.828;-2.298;2023-11-18T14:23:17;26.85;;;4.80;;
34896;SDS011;43407;51.828;-2.298;2023-11-18T14:25:44;22.02;;;4.72;;
34896;SDS011;43407;51.828;-2.298;2023-11-18T14:28:10;22.33;;;5.30;;
34896;SDS011;43407;51.828;-2.298;2023-11-18T14:30:36;24.00;;;5.15;;
34896;SDS011;43407;51.828;-2.298;2023-11-18T14:33:02;19.75;;;4.38;;
34896;SDS011;43407;51.828;-2.298;2023-11-18T14:35:29;30.20;;;5.53;;
34896;SDS011;43407;51.828;-2.298;2023-11-18T14:37:54;22.75;;;4.65;;
34896;SDS011;43407;51.828;-2.298;2023-11-18T14:40:21;21.63;;;3.92;;
34896;SDS011;43407;51.828;-2.298;2023-11-18T14:42:49;19.38;;;4.43;;
34896;SDS011;43407;51.828;-2.298;2023-11-18T14:45:15;30.75;;;5.55;;
34896;SDS011;43407;51.828;-2.298;2023-11-18T14:47:41;29.42;;;5.03;;
34896;SDS011;43407;51.828;-2.298;2023-11-18T14:50:12;25.58;;;4.38;;
34896;SDS011;43407;51.828;-2.298;2023-11-18T14:52:51;22.10;;;4.78;;
34896;SDS011;43407;51.828;-2.298;2023-11-18T14:55:23;32.40;;;5.55;;
34896;SDS011;43407;51.828;-2.298;2023-11-18T14:57:50;28.55;;;5.00;;
34896;SDS011;43407;51.828;-2.298;2023-11-18T15:00:16;28.17;;;5.07;;
34896;SDS011;43407;51.828;-2.298;2023-11-18T15:02:45;35.83;;;5.53;;
34896;SDS011;43407;51.828;-2.298;2023-11-18T15:05:12;24.48;;;5.43;;
34896;SDS011;43407;51.828;-2.298;2023-11-18T15:07:38;26.33;;;5.55;;
34896;SDS011;43407;51.828;-2.298;2023-11-18T15:10:04;31.98;;;5.72;;
34896;SDS011;43407;51.828;-2.298;2023-11-18T15:12:31;28.65;;;6.22;;
34896;SDS011;43407;51.828;-2.298;2023-11-18T15:14:56;34.13;;;5.85;;
34896;SDS011;43407;51.828;-2.298;2023-11-18T15:17:24;33.10;;;6.78;;